CSN2 weather

Montreal / Kruger Heliport
Montréal, Quebec, Canada

Public forecast

Using degrees Celsius for public forecast. Weather courtesy of forecast.io.

METAR (pilot weather report)

Closest report is Montreal / Pierre Elliott Trudeau International Airport, 4.9 nm (9.1 km) WSW. Retrieved 2019/09/16 03:00 UTC (23 minutes ago):

CYUL 160300Z 28006KT 15SM FEW054 13/07 A3008 RMK SC1 SC TR SLP186

TAF (pilot weather forecast)

Closest forecast is Montreal / Pierre Elliott Trudeau International Airport, 4.9 nm (9.1 km) WSW. Retrieved 2019/09/16 03:42 UTC (0 seconds ago):

TAF CYUL 160238Z 1603/1624 30010KT P6SM FEW050 FM161400 27008KT P6SM FEW040 BECMG 1616/1618 28012KT FM162300 32010KT P6SM SKC RMK NXT FCST BY 160600Z